Time;durP1;ratioP1;P1;durP2;ratioP2;P2;SDS_P1;SDS_P2;PMS_P1;PMS_P2;Temp;Humidity;BMP_temperature;BMP_pressure;BME280_temperature;BME280_humidity;BME280_pressure;Samples;Min_cycle;Max_cycle;Signal;HPM_P1;HPM_P2
2021/01/25 00:01:05;;;;;;;39.88;17.65;;;;;;;;;;5041681;28;20060;-70
2021/01/25 00:03:32;;;;;;;39.95;17.45;;;;;;;;;;5036762;28;20043;-70
2021/01/25 00:05:58;;;;;;;44.30;18.20;;;;;;;;;;5039515;28;20042;-70
2021/01/25 00:08:24;;;;;;;44.10;18.92;;;;;;;;;;5036116;28;20103;-70
2021/01/25 00:10:50;;;;;;;37.47;17.52;;;;;;;;;;5039335;28;20045;-70
2021/01/25 00:13:16;;;;;;;45.83;17.90;;;;;;;;;;5044860;28;20064;-70
2021/01/25 00:15:46;;;;;;;41.55;18.20;;;;;;;;;;5049250;28;20117;-70
2021/01/25 00:18:12;;;;;;;43.05;18.15;;;;;;;;;;5046138;28;20048;-70
2021/01/25 00:20:38;;;;;;;44.47;19.23;;;;;;;;;;5034712;28;20037;-70
2021/01/25 00:23:05;;;;;;;44.22;18.35;;;;;;;;;;5047717;28;20064;-70
2021/01/25 00:25:31;;;;;;;47.90;18.63;;;;;;;;;;5047603;28;20030;-70
2021/01/25 00:27:57;;;;;;;41.95;18.90;;;;;;;;;;5044972;28;20056;-70
2021/01/25 00:30:24;;;;;;;39.53;17.83;;;;;;;;;;5046012;28;20041;-70
2021/01/25 00:32:50;;;;;;;38.65;17.23;;;;;;;;;;5038666;28;20049;-70
2021/01/25 00:35:16;;;;;;;49.25;19.27;;;;;;;;;;5042039;28;20100;-70
2021/01/25 00:37:43;;;;;;;44.10;18.75;;;;;;;;;;5047723;28;20045;-70
2021/01/25 00:40:09;;;;;;;43.25;18.92;;;;;;;;;;5050261;28;20119;-70
2021/01/25 00:42:36;;;;;;;36.42;17.25;;;;;;;;;;5045303;28;20050;-70
2021/01/25 00:45:03;;;;;;;41.83;18.05;;;;;;;;;;5022186;28;20543;-70
2021/01/25 00:47:29;;;;;;;38.13;17.45;;;;;;;;;;5042365;28;20056;-70
2021/01/25 00:49:55;;;;;;;41.38;17.58;;;;;;;;;;5031134;28;20055;-70
2021/01/25 00:52:21;;;;;;;43.97;18.30;;;;;;;;;;5042943;28;20037;-70
2021/01/25 00:54:48;;;;;;;42.63;17.63;;;;;;;;;;5031381;28;20466;-70
2021/01/25 00:57:14;;;;;;;43.08;17.38;;;;;;;;;;5030398;28;20037;-70
2021/01/25 00:59:41;;;;;;;;;;;;;;;;;;5024708;28;20053;-71
2021/01/25 01:02:08;;;;;;;44.67;17.40;;;;;;;;;;5047880;28;19920;-70
2021/01/25 01:04:34;;;;;;;44.53;18.25;;;;;;;;;;5046640;28;20124;-70
2021/01/25 01:07:01;;;;;;;39.45;17.70;;;;;;;;;;5048828;28;20045;-70
2021/01/25 01:09:27;;;;;;;38.88;16.90;;;;;;;;;;5042095;28;20044;-70
2021/01/25 01:11:53;;;;;;;48.27;17.70;;;;;;;;;;5050971;28;20037;-70
2021/01/25 01:14:19;;;;;;;46.85;18.42;;;;;;;;;;5032471;28;20957;-70
2021/01/25 01:16:45;;;;;;;45.08;18.98;;;;;;;;;;5043754;28;20064;-70
2021/01/25 01:19:12;;;;;;;38.37;18.37;;;;;;;;;;5030095;28;20045;-70
2021/01/25 01:21:38;;;;;;;48.63;18.23;;;;;;;;;;5044692;28;20342;-70
2021/01/25 01:24:05;;;;;;;41.95;19.35;;;;;;;;;;5045535;28;20045;-70
2021/01/25 01:26:31;;;;;;;34.40;14.03;;;;;;;;;;5044802;28;20041;-70
2021/01/25 01:28:57;;;;;;;47.42;19.83;;;;;;;;;;5046345;28;20288;-70
2021/01/25 01:31:23;;;;;;;39.65;18.27;;;;;;;;;;5044536;28;20052;-70
2021/01/25 01:33:50;;;;;;;44.38;18.02;;;;;;;;;;5042634;28;20135;-70
2021/01/25 01:36:16;;;;;;;41.55;18.17;;;;;;;;;;5046014;28;20039;-70
2021/01/25 01:38:42;;;;;;;46.30;17.42;;;;;;;;;;5041686;28;20041;-70
2021/01/25 01:41:08;;;;;;;46.35;18.40;;;;;;;;;;5049684;28;20045;-70
2021/01/25 01:43:34;;;;;;;37.95;17.77;;;;;;;;;;5045475;28;20076;-70
2021/01/25 01:46:00;;;;;;;44.75;17.98;;;;;;;;;;5044299;28;20041;-70
2021/01/25 01:48:27;;;;;;;45.57;17.70;;;;;;;;;;5044746;28;20576;-70
2021/01/25 01:50:55;;;;;;;39.40;16.73;;;;;;;;;;5046297;28;20061;-70
2021/01/25 01:53:22;;;;;;;42.65;18.05;;;;;;;;;;5025133;28;20124;-70
2021/01/25 01:55:48;;;;;;;34.58;16.30;;;;;;;;;;5038964;28;20486;-70
2021/01/25 01:58:15;;;;;;;44.92;17.30;;;;;;;;;;5048338;28;20127;-70
2021/01/25 02:00:41;;;;;;;41.15;18.63;;;;;;;;;;5044876;28;20049;-70
2021/01/25 02:03:07;;;;;;;35.15;17.05;;;;;;;;;;5052562;28;20065;-70
2021/01/25 02:05:33;;;;;;;46.65;17.52;;;;;;;;;;5041467;28;20408;-70
2021/01/25 02:08:00;;;;;;;37.90;16.27;;;;;;;;;;5048657;28;20055;-70
2021/01/25 02:10:27;;;;;;;40.58;17.55;;;;;;;;;;5051832;28;20037;-71
2021/01/25 02:12:56;;;;;;;37.97;18.40;;;;;;;;;;5046713;28;20036;-70
2021/01/25 02:15:23;;;;;;;43.25;17.55;;;;;;;;;;5045993;28;20036;-70
2021/01/25 02:17:52;;;;;;;36.85;17.08;;;;;;;;;;5049832;28;20049;-70
2021/01/25 02:20:35;;;;;;;38.92;16.27;;;;;;;;;;5049844;28;20534;-70
2021/01/25 02:23:04;;;;;;;40.88;17.42;;;;;;;;;;5047635;28;20041;-70
2021/01/25 02:25:37;;;;;;;38.58;16.30;;;;;;;;;;5050909;28;20062;-70
2021/01/25 02:28:05;;;;;;;43.90;17.23;;;;;;;;;;5044703;28;20546;-70
2021/01/25 02:30:31;;;;;;;33.22;14.60;;;;;;;;;;5045826;28;20044;-70
2021/01/25 02:32:57;;;;;;;41.05;15.77;;;;;;;;;;5046338;28;20041;-70
2021/01/25 02:35:24;;;;;;;27.67;13.43;;;;;;;;;;5045839;28;20137;-70
2021/01/25 02:37:52;;;;;;;35.85;15.80;;;;;;;;;;5049371;28;20061;-70
2021/01/25 02:40:20;;;;;;;41.22;15.05;;;;;;;;;;5044388;28;20611;-70
2021/01/25 02:42:46;;;;;;;41.72;15.70;;;;;;;;;;5046918;28;20043;-71
2021/01/25 02:45:13;;;;;;;38.95;16.38;;;;;;;;;;5043763;28;20045;-70
2021/01/25 02:47:39;;;;;;;32.38;14.52;;;;;;;;;;5044242;28;20493;-71
2021/01/25 02:50:06;;;;;;;33.67;15.52;;;;;;;;;;5038452;28;20644;-70
2021/01/25 02:52:32;;;;;;;38.13;15.40;;;;;;;;;;5038827;28;20083;-70
2021/01/25 02:55:01;;;;;;;37.22;14.98;;;;;;;;;;5039232;28;20050;-70
2021/01/25 02:57:27;;;;;;;35.30;14.35;;;;;;;;;;5053095;28;20061;-70
2021/01/25 02:59:53;;;;;;;33.20;14.35;;;;;;;;;;5027607;28;20507;-70
2021/01/25 03:02:19;;;;;;;30.05;14.75;;;;;;;;;;5047989;28;20412;-70
2021/01/25 03:04:46;;;;;;;34.28;14.60;;;;;;;;;;5050238;28;20556;-70
2021/01/25 03:07:12;;;;;;;33.80;14.50;;;;;;;;;;5048914;28;20053;-70
2021/01/25 03:09:38;;;;;;;34.33;13.75;;;;;;;;;;5048606;28;20041;-70
2021/01/25 03:12:05;;;;;;;30.63;14.52;;;;;;;;;;5050159;28;20558;-71
2021/01/25 03:14:32;;;;;;;27.17;13.83;;;;;;;;;;5047748;28;20451;-70
2021/01/25 03:16:58;;;;;;;36.60;13.80;;;;;;;;;;5030192;28;20099;-70
2021/01/25 03:19:25;;;;;;;28.85;9.88;;;;;;;;;;5045386;28;20042;-71
2021/01/25 03:21:52;;;;;;;31.80;13.48;;;;;;;;;;5038406;28;20045;-71
2021/01/25 03:24:18;;;;;;;31.83;14.15;;;;;;;;;;5048113;28;20091;-70
2021/01/25 03:26:45;;;;;;;23.42;10.23;;;;;;;;;;5050594;28;20405;-70
2021/01/25 03:29:11;;;;;;;37.72;13.32;;;;;;;;;;5050116;28;20587;-70
2021/01/25 03:31:37;;;;;;;31.92;13.10;;;;;;;;;;5045297;28;20057;-70
2021/01/25 03:34:05;;;;;;;34.47;13.25;;;;;;;;;;5046297;28;20057;-70
2021/01/25 03:36:31;;;;;;;40.95;12.60;;;;;;;;;;5044037;28;20048;-71
2021/01/25 03:38:58;;;;;;;31.00;14.00;;;;;;;;;;5049794;28;20052;-70
2021/01/25 03:41:25;;;;;;;19.85;8.63;;;;;;;;;;5038220;28;20043;-70
2021/01/25 03:43:51;;;;;;;26.08;12.75;;;;;;;;;;5050276;28;20925;-71
2021/01/25 03:46:17;;;;;;;37.35;12.57;;;;;;;;;;5049805;28;20520;-71
2021/01/25 03:48:43;;;;;;;28.00;12.75;;;;;;;;;;5051867;28;20049;-71
2021/01/25 03:51:10;;;;;;;30.90;12.55;;;;;;;;;;5047817;28;20378;-70
2021/01/25 03:53:36;;;;;;;25.75;12.60;;;;;;;;;;5050367;28;20044;-71
2021/01/25 03:56:02;;;;;;;29.50;13.18;;;;;;;;;;5049256;28;20061;-70
2021/01/25 03:58:28;;;;;;;29.02;12.95;;;;;;;;;;5050704;28;20094;-70
2021/01/25 04:00:55;;;;;;;34.10;12.52;;;;;;;;;;5050639;28;20045;-71
2021/01/25 04:03:21;;;;;;;27.55;12.35;;;;;;;;;;5047617;28;20069;-70
2021/01/25 04:05:47;;;;;;;32.78;13.38;;;;;;;;;;5035961;28;20041;-70
2021/01/25 04:08:14;;;;;;;30.13;12.45;;;;;;;;;;5041324;28;20125;-70
2021/01/25 04:10:40;;;;;;;28.63;10.15;;;;;;;;;;5048633;28;20119;-70
2021/01/25 04:13:07;;;;;;;25.70;11.68;;;;;;;;;;5051005;28;20487;-70
2021/01/25 04:15:33;;;;;;;27.70;11.68;;;;;;;;;;5044732;28;20050;-71
2021/01/25 04:17:59;;;;;;;26.00;11.57;;;;;;;;;;5051329;28;20037;-71
2021/01/25 04:20:26;;;;;;;27.10;12.95;;;;;;;;;;5047529;28;20080;-70
2021/01/25 04:22:52;;;;;;;30.08;12.70;;;;;;;;;;5050205;28;20099;-71
2021/01/25 04:25:18;;;;;;;32.30;12.27;;;;;;;;;;5045215;28;20397;-70
2021/01/25 04:27:45;;;;;;;25.25;12.07;;;;;;;;;;5048511;28;20129;-71
2021/01/25 04:30:11;;;;;;;31.00;12.95;;;;;;;;;;5049632;28;20056;-70
2021/01/25 04:32:38;;;;;;;35.78;11.98;;;;;;;;;;5043224;28;20087;-70
2021/01/25 04:35:05;;;;;;;21.08;9.20;;;;;;;;;;5043865;28;20336;-70
2021/01/25 04:37:31;;;;;;;28.73;11.75;;;;;;;;;;5042052;28;20037;-70
2021/01/25 04:39:58;;;;;;;36.08;13.45;;;;;;;;;;5051552;28;20036;-70
2021/01/25 04:42:25;;;;;;;25.20;11.77;;;;;;;;;;5050365;28;20121;-71
2021/01/25 04:44:51;;;;;;;27.63;11.73;;;;;;;;;;5044174;28;20125;-70
2021/01/25 04:47:19;;;;;;;33.10;12.50;;;;;;;;;;5052633;28;20547;-70
2021/01/25 04:49:47;;;;;;;30.77;12.60;;;;;;;;;;5048175;28;20116;-70
2021/01/25 04:52:13;;;;;;;23.88;11.13;;;;;;;;;;5049536;28;20065;-70
2021/01/25 04:54:39;;;;;;;32.10;12.27;;;;;;;;;;5051921;28;20041;-70
2021/01/25 04:57:06;;;;;;;25.90;11.77;;;;;;;;;;5051150;28;20111;-70
2021/01/25 04:59:33;;;;;;;30.55;11.65;;;;;;;;;;5054107;28;20037;-71
2021/01/25 05:01:59;;;;;;;22.33;11.73;;;;;;;;;;5048483;28;20049;-71
2021/01/25 05:04:30;;;;;;;31.08;11.45;;;;;;;;;;5050471;28;20049;-70
2021/01/25 05:06:56;;;;;;;24.83;10.63;;;;;;;;;;5052224;28;20059;-70
2021/01/25 05:09:22;;;;;;;30.75;11.07;;;;;;;;;;5050717;28;20504;-70
2021/01/25 05:12:01;;;;;;;25.25;10.68;;;;;;;;;;5049286;28;20073;-70
2021/01/25 05:14:39;;;;;;;22.75;10.38;;;;;;;;;;5030366;28;20112;-70
2021/01/25 05:17:06;;;;;;;23.85;10.60;;;;;;;;;;5047645;28;20087;-70
2021/01/25 05:19:33;;;;;;;;;;;;;;;;;;5051854;28;20091;-70
2021/01/25 05:21:59;;;;;;;21.98;10.88;;;;;;;;;;5038393;28;20483;-70
2021/01/25 05:24:25;;;;;;;29.88;10.30;;;;;;;;;;5048525;28;20070;-70
2021/01/25 05:26:58;;;;;;;26.88;9.65;;;;;;;;;;5041224;28;20701;-70
2021/01/25 05:29:25;;;;;;;21.65;10.30;;;;;;;;;;5024963;28;20054;-70
2021/01/25 05:31:51;;;;;;;21.05;9.05;;;;;;;;;;5031481;28;20459;-70
2021/01/25 05:34:19;;;;;;;22.23;9.05;;;;;;;;;;5021333;28;20029;-70
2021/01/25 05:36:45;;;;;;;25.52;9.45;;;;;;;;;;5029590;28;20513;-70
2021/01/25 05:39:15;;;;;;;21.77;9.10;;;;;;;;;;5022522;28;20072;-70
2021/01/25 05:41:54;;;;;;;18.58;8.25;;;;;;;;;;5024454;28;20037;-70
2021/01/25 05:44:20;;;;;;;16.02;7.22;;;;;;;;;;5028905;28;20068;-70
2021/01/25 05:46:46;;;;;;;16.85;8.00;;;;;;;;;;5028241;28;20049;-70
2021/01/25 05:49:12;;;;;;;18.83;7.30;;;;;;;;;;5034793;28;20563;-70
2021/01/25 05:51:40;;;;;;;18.70;7.80;;;;;;;;;;5029156;28;20050;-70
2021/01/25 05:54:06;;;;;;;;;;;;;;;;;;5028803;28;20117;-69
2021/01/25 05:56:33;;;;;;;26.17;8.38;;;;;;;;;;5034816;28;19961;-69
2021/01/25 05:58:59;;;;;;;16.55;6.88;;;;;;;;;;5034055;28;20037;-70
2021/01/25 06:01:25;;;;;;;21.63;8.10;;;;;;;;;;5030144;28;20037;-70
2021/01/25 06:03:54;;;;;;;15.53;7.80;;;;;;;;;;5022806;28;20815;-69
2021/01/25 06:06:33;;;;;;;14.57;7.60;;;;;;;;;;5029773;28;20046;-70
2021/01/25 06:09:03;;;;;;;21.05;7.60;;;;;;;;;;5023906;28;20509;-69
2021/01/25 06:11:31;;;;;;;20.65;8.13;;;;;;;;;;5025224;28;20042;-70
2021/01/25 06:14:00;;;;;;;17.42;7.93;;;;;;;;;;5030774;28;20537;-70
2021/01/25 06:16:27;;;;;;;20.77;7.85;;;;;;;;;;5023998;28;20096;-70
2021/01/25 06:18:57;;;;;;;16.80;7.93;;;;;;;;;;5026589;28;20502;-70
2021/01/25 06:21:27;;;;;;;22.33;8.05;;;;;;;;;;5030059;28;20527;-70
2021/01/25 06:23:54;;;;;;;22.10;8.20;;;;;;;;;;5027723;28;20448;-70
2021/01/25 06:26:24;;;;;;;22.83;8.53;;;;;;;;;;5030701;28;20077;-69
2021/01/25 06:28:51;;;;;;;14.35;7.25;;;;;;;;;;5027378;28;20509;-70
2021/01/25 06:31:18;;;;;;;18.63;6.10;;;;;;;;;;5037522;28;20045;-70
2021/01/25 06:33:48;;;;;;;17.70;8.00;;;;;;;;;;5023806;28;20157;-69
2021/01/25 06:36:17;;;;;;;19.35;7.80;;;;;;;;;;5032326;28;20621;-69
2021/01/25 06:38:47;;;;;;;19.27;7.90;;;;;;;;;;5031852;28;20053;-69
2021/01/25 06:41:14;;;;;;;23.73;8.73;;;;;;;;;;5031133;28;20043;-70
2021/01/25 06:43:45;;;;;;;27.02;6.15;;;;;;;;;;5028952;28;20378;-70
2021/01/25 06:46:21;;;;;;;19.00;7.57;;;;;;;;;;5032253;28;20121;-70
2021/01/25 06:48:51;;;;;;;23.92;8.05;;;;;;;;;;5029490;28;20060;-69
2021/01/25 06:51:18;;;;;;;18.85;8.00;;;;;;;;;;5027520;28;20049;-70
2021/01/25 06:53:47;;;;;;;19.17;8.63;;;;;;;;;;5031192;28;20441;-70
2021/01/25 06:56:13;;;;;;;25.08;8.75;;;;;;;;;;5032067;28;20049;-69
2021/01/25 06:58:44;;;;;;;16.92;8.63;;;;;;;;;;5035119;28;20134;-69
2021/01/25 07:01:11;;;;;;;18.05;7.97;;;;;;;;;;5013014;28;20452;-69
2021/01/25 07:03:44;;;;;;;18.30;7.63;;;;;;;;;;5031198;28;20464;-69
2021/01/25 07:06:14;;;;;;;13.65;7.95;;;;;;;;;;5029992;28;20303;-70
2021/01/25 07:08:51;;;;;;;19.88;7.53;;;;;;;;;;5030799;28;20045;-69
2021/01/25 07:11:18;;;;;;;15.25;7.32;;;;;;;;;;5029264;28;20049;-69
2021/01/25 07:13:44;;;;;;;22.40;7.85;;;;;;;;;;5026100;28;20057;-70
2021/01/25 07:16:11;;;;;;;17.73;8.30;;;;;;;;;;5025968;28;20104;-69
2021/01/25 07:18:41;;;;;;;18.90;7.50;;;;;;;;;;5030993;28;20045;-69
2021/01/25 07:21:07;;;;;;;24.83;7.85;;;;;;;;;;5030716;28;20044;-69
2021/01/25 07:23:38;;;;;;;18.13;7.38;;;;;;;;;;5030658;28;20060;-69
2021/01/25 07:26:04;;;;;;;17.60;7.75;;;;;;;;;;5031399;28;20841;-70
2021/01/25 07:28:31;;;;;;;22.02;8.35;;;;;;;;;;5037314;28;20497;-69
2021/01/25 07:30:58;;;;;;;18.80;8.00;;;;;;;;;;5051507;28;20138;-70
2021/01/25 07:33:25;;;;;;;17.42;7.53;;;;;;;;;;5050360;28;20045;-70
2021/01/25 07:35:53;;;;;;;26.38;8.20;;;;;;;;;;5047279;28;20049;-69
2021/01/25 07:38:19;;;;;;;22.08;8.05;;;;;;;;;;5049331;28;20049;-70
2021/01/25 07:40:46;;;;;;;21.40;8.10;;;;;;;;;;5049998;28;20099;-70
2021/01/25 07:43:17;;;;;;;17.83;7.57;;;;;;;;;;5032959;28;20056;-69
2021/01/25 07:45:44;;;;;;;22.10;7.85;;;;;;;;;;5050760;28;20048;-69
2021/01/25 07:48:11;;;;;;;18.95;7.65;;;;;;;;;;5047930;28;20071;-69
2021/01/25 07:50:37;;;;;;;17.42;7.90;;;;;;;;;;5049847;28;20049;-69
2021/01/25 07:53:04;;;;;;;11.03;5.33;;;;;;;;;;5046816;28;20041;-69
2021/01/25 07:55:31;;;;;;;17.75;7.55;;;;;;;;;;5041972;28;20044;-69
2021/01/25 07:58:06;;;;;;;19.17;7.80;;;;;;;;;;5046700;28;20033;-69
2021/01/25 08:00:33;;;;;;;17.85;7.10;;;;;;;;;;5044472;28;20040;-69
2021/01/25 08:03:03;;;;;;;21.47;7.33;;;;;;;;;;5043422;28;20112;-69
2021/01/25 08:05:30;;;;;;;24.73;9.55;;;;;;;;;;5042893;28;20107;-69
2021/01/25 08:07:56;;;;;;;21.63;9.20;;;;;;;;;;5049422;28;20044;-69
2021/01/25 08:10:23;;;;;;;23.08;9.63;;;;;;;;;;5050495;28;20044;-69
2021/01/25 08:12:49;;;;;;;27.02;9.40;;;;;;;;;;5050166;28;20045;-69
2021/01/25 08:15:24;;;;;;;28.90;10.60;;;;;;;;;;5043054;28;20493;-69
2021/01/25 08:17:56;;;;;;;26.35;10.25;;;;;;;;;;5049339;28;20052;-69
2021/01/25 08:20:23;;;;;;;25.17;9.73;;;;;;;;;;5049394;28;20140;-69
2021/01/25 08:22:58;;;;;;;26.25;9.73;;;;;;;;;;5049686;28;20052;-69
2021/01/25 08:25:26;;;;;;;30.83;10.68;;;;;;;;;;5042996;28;20140;-69
2021/01/25 08:27:55;;;;;;;24.10;10.52;;;;;;;;;;5044517;28;20063;-69
2021/01/25 08:30:22;;;;;;;30.92;10.30;;;;;;;;;;5039312;28;20073;-69
2021/01/25 08:32:51;;;;;;;29.42;9.73;;;;;;;;;;5032305;28;20053;-69
2021/01/25 08:35:38;;;;;;;23.95;9.77;;;;;;;;;;5050510;28;20077;-69
2021/01/25 08:38:25;;;;;;;25.73;10.25;;;;;;;;;;5048832;28;20040;-69
2021/01/25 08:40:52;;;;;;;26.10;10.65;;;;;;;;;;5049410;28;20080;-69
2021/01/25 08:43:29;;;;;;;23.02;7.55;;;;;;;;;;5046898;28;20496;-69
2021/01/25 08:46:08;;;;;;;32.03;11.15;;;;;;;;;;5050423;28;20115;-70
2021/01/25 08:48:34;;;;;;;31.40;10.27;;;;;;;;;;5049605;28;20381;-69
2021/01/25 08:51:09;;;;;;;25.75;9.60;;;;;;;;;;5043947;28;20121;-69
2021/01/25 08:53:36;;;;;;;21.38;9.60;;;;;;;;;;5049904;28;20421;-69
2021/01/25 08:56:10;;;;;;;25.65;9.60;;;;;;;;;;5047491;28;20049;-69
2021/01/25 08:58:36;;;;;;;29.98;10.68;;;;;;;;;;5050785;28;20050;-69
2021/01/25 09:01:11;;;;;;;20.65;9.88;;;;;;;;;;5041357;28;20045;-69
2021/01/25 09:03:37;;;;;;;34.97;10.48;;;;;;;;;;5041514;28;20045;-69
2021/01/25 09:06:05;;;;;;;22.10;9.73;;;;;;;;;;5049107;28;20443;-69
2021/01/25 09:08:31;;;;;;;18.23;9.30;;;;;;;;;;5042021;28;20041;-69
2021/01/25 09:10:57;;;;;;;21.13;9.68;;;;;;;;;;5048090;28;20049;-69
2021/01/25 09:13:23;;;;;;;29.30;10.10;;;;;;;;;;5045705;28;20037;-69
2021/01/25 09:15:50;;;;;;;20.42;8.80;;;;;;;;;;5046140;28;20044;-69
2021/01/25 09:18:16;;;;;;;22.90;9.23;;;;;;;;;;5048030;28;20106;-69
2021/01/25 09:20:42;;;;;;;33.05;11.18;;;;;;;;;;5045565;28;20052;-69
2021/01/25 09:23:08;;;;;;;24.13;9.75;;;;;;;;;;5045642;28;20087;-69
2021/01/25 09:25:35;;;;;;;20.67;10.05;;;;;;;;;;5049779;28;20045;-69
2021/01/25 09:28:01;;;;;;;25.40;10.20;;;;;;;;;;5047755;28;20064;-69
2021/01/25 09:30:29;;;;;;;25.83;10.38;;;;;;;;;;5050041;28;20052;-70
2021/01/25 09:32:55;;;;;;;;;;;;;;;;;;5050890;28;20102;-69
2021/01/25 09:35:22;;;;;;;28.63;9.13;;;;;;;;;;5046026;28;19933;-69
2021/01/25 09:37:49;;;;;;;20.85;9.57;;;;;;;;;;5053410;28;20052;-69
2021/01/25 09:40:16;;;;;;;23.75;9.80;;;;;;;;;;5053085;28;20047;-69
2021/01/25 09:42:42;;;;;;;22.88;9.98;;;;;;;;;;5045121;28;20041;-69
2021/01/25 09:45:10;;;;;;;31.27;10.38;;;;;;;;;;5043169;28;20048;-69
2021/01/25 09:47:36;;;;;;;30.92;9.88;;;;;;;;;;5046051;28;20103;-69
2021/01/25 09:50:04;;;;;;;22.27;10.60;;;;;;;;;;5050874;28;20045;-69
2021/01/25 09:52:30;;;;;;;18.92;9.57;;;;;;;;;;5044190;28;20048;-70
2021/01/25 09:54:57;;;;;;;14.65;7.50;;;;;;;;;;5051430;28;20040;-70
2021/01/25 09:57:23;;;;;;;22.58;10.73;;;;;;;;;;5050163;28;20080;-69
2021/01/25 09:59:50;;;;;;;26.05;10.18;;;;;;;;;;5051797;28;20037;-70
2021/01/25 10:02:16;;;;;;;25.20;9.65;;;;;;;;;;5052456;28;20128;-69
2021/01/25 10:04:43;;;;;;;20.17;9.80;;;;;;;;;;5053080;28;20059;-69
2021/01/25 10:07:09;;;;;;;26.65;9.82;;;;;;;;;;5048522;28;20033;-70
2021/01/25 10:09:35;;;;;;;31.63;11.05;;;;;;;;;;5052124;28;20095;-70
2021/01/25 10:12:01;;;;;;;30.58;10.30;;;;;;;;;;5047458;28;20044;-69
2021/01/25 10:14:27;;;;;;;24.05;10.60;;;;;;;;;;5046102;28;20064;-70
2021/01/25 10:16:53;;;;;;;30.67;10.45;;;;;;;;;;5050947;28;20098;-70
2021/01/25 10:19:21;;;;;;;21.55;9.18;;;;;;;;;;5049614;28;20408;-70
2021/01/25 10:21:47;;;;;;;18.17;9.30;;;;;;;;;;5045471;28;20619;-70
2021/01/25 10:24:13;;;;;;;26.65;9.38;;;;;;;;;;5044814;28;20041;-69
2021/01/25 10:26:39;;;;;;;23.77;9.15;;;;;;;;;;5051616;28;20041;-69
2021/01/25 10:29:06;;;;;;;22.67;9.35;;;;;;;;;;5051116;28;20115;-70
2021/01/25 10:31:32;;;;;;;22.55;9.80;;;;;;;;;;5049013;28;20107;-69
2021/01/25 10:33:58;;;;;;;19.92;9.68;;;;;;;;;;5045093;28;20614;-70
2021/01/25 10:36:25;;;;;;;19.17;8.43;;;;;;;;;;5052122;28;20041;-69
2021/01/25 10:38:51;;;;;;;18.90;8.82;;;;;;;;;;5050970;28;20098;-70
2021/01/25 10:41:17;;;;;;;23.15;9.90;;;;;;;;;;5050842;28;20041;-69
2021/01/25 10:43:43;;;;;;;23.75;10.13;;;;;;;;;;5040442;28;20041;-70
2021/01/25 10:46:10;;;;;;;17.88;8.82;;;;;;;;;;5044459;28;20049;-70
2021/01/25 10:48:36;;;;;;;21.20;9.25;;;;;;;;;;5050100;28;20527;-70
2021/01/25 10:51:03;;;;;;;18.98;8.82;;;;;;;;;;5041647;28;20045;-70
2021/01/25 10:53:29;;;;;;;21.50;8.80;;;;;;;;;;5051555;28;20047;-70
2021/01/25 10:55:55;;;;;;;18.35;7.88;;;;;;;;;;5049652;28;20048;-70
2021/01/25 10:58:21;;;;;;;16.35;8.68;;;;;;;;;;5051829;28;20037;-70
2021/01/25 11:00:50;;;;;;;20.00;8.63;;;;;;;;;;5045927;28;20068;-70
2021/01/25 11:03:16;;;;;;;24.67;9.07;;;;;;;;;;5049750;28;20122;-70
2021/01/25 11:05:43;;;;;;;20.00;8.32;;;;;;;;;;5049316;28;20087;-70
2021/01/25 11:08:10;;;;;;;18.20;8.07;;;;;;;;;;5046535;28;20055;-70
2021/01/25 11:10:36;;;;;;;18.60;7.78;;;;;;;;;;5051573;28;20040;-70
2021/01/25 11:13:02;;;;;;;21.88;8.32;;;;;;;;;;5048653;28;20486;-70
2021/01/25 11:15:28;;;;;;;21.95;7.43;;;;;;;;;;5041057;28;20037;-70
2021/01/25 11:17:54;;;;;;;25.45;7.82;;;;;;;;;;5044521;28;20041;-70
2021/01/25 11:20:21;;;;;;;16.10;7.05;;;;;;;;;;5048209;28;20049;-70
2021/01/25 11:22:47;;;;;;;25.50;7.75;;;;;;;;;;5040543;28;20559;-70
2021/01/25 11:25:14;;;;;;;19.30;7.72;;;;;;;;;;5050418;28;20044;-70
2021/01/25 11:27:40;;;;;;;17.15;7.18;;;;;;;;;;5051129;28;21203;-70
2021/01/25 11:30:07;;;;;;;17.98;6.47;;;;;;;;;;5051061;28;20048;-70
2021/01/25 11:32:33;;;;;;;14.15;7.60;;;;;;;;;;5048884;28;20037;-69
2021/01/25 11:34:59;;;;;;;15.63;7.65;;;;;;;;;;5051099;28;20044;-69
2021/01/25 11:37:26;;;;;;;22.33;7.38;;;;;;;;;;5045003;28;20045;-70
2021/01/25 11:39:52;;;;;;;16.35;6.78;;;;;;;;;;5045535;28;20045;-69
2021/01/25 11:42:18;;;;;;;14.82;6.43;;;;;;;;;;5029754;28;20042;-69
2021/01/25 11:44:44;;;;;;;24.08;8.00;;;;;;;;;;5049431;28;20512;-70
2021/01/25 11:47:10;;;;;;;17.40;7.35;;;;;;;;;;5041617;28;20049;-69
2021/01/25 11:49:37;;;;;;;18.27;6.87;;;;;;;;;;5051043;28;20043;-69
2021/01/25 11:52:03;;;;;;;19.13;7.28;;;;;;;;;;5043344;28;20187;-69
2021/01/25 11:54:30;;;;;;;14.80;6.18;;;;;;;;;;5046533;28;20041;-69
2021/01/25 11:56:56;;;;;;;12.20;5.95;;;;;;;;;;5050251;28;20036;-69
2021/01/25 11:59:24;;;;;;;12.20;5.72;;;;;;;;;;5050350;28;20049;-69
2021/01/25 12:01:50;;;;;;;10.40;5.13;;;;;;;;;;5047960;28;20098;-69
2021/01/25 12:04:16;;;;;;;10.02;4.50;;;;;;;;;;5048496;28;20037;-69
2021/01/25 12:06:42;;;;;;;15.20;5.38;;;;;;;;;;5036948;28;20037;-69
2021/01/25 12:09:08;;;;;;;10.65;4.68;;;;;;;;;;5037345;28;20099;-69
2021/01/25 12:11:34;;;;;;;10.20;4.55;;;;;;;;;;5050318;28;20048;-69
2021/01/25 12:14:01;;;;;;;8.45;4.40;;;;;;;;;;5049861;28;20040;-69
2021/01/25 12:16:27;;;;;;;9.15;4.82;;;;;;;;;;5048199;28;20408;-69
2021/01/25 12:18:53;;;;;;;12.63;4.67;;;;;;;;;;5048497;28;20450;-69
2021/01/25 12:21:21;;;;;;;9.25;4.25;;;;;;;;;;5048552;28;20593;-69
2021/01/25 12:23:47;;;;;;;11.57;3.45;;;;;;;;;;5043077;28;20448;-69
2021/01/25 12:26:13;;;;;;;7.70;4.03;;;;;;;;;;5043980;28;20064;-69
2021/01/25 12:28:40;;;;;;;7.53;4.00;;;;;;;;;;5046888;28;20044;-69
2021/01/25 12:31:06;;;;;;;11.50;4.40;;;;;;;;;;5015623;28;20060;-69
2021/01/25 12:33:33;;;;;;;10.07;3.83;;;;;;;;;;5044136;28;20045;-69
2021/01/25 12:35:59;;;;;;;6.40;3.72;;;;;;;;;;5032468;28;20452;-69
2021/01/25 12:38:26;;;;;;;12.65;4.43;;;;;;;;;;5046723;28;20064;-69
2021/01/25 12:40:52;;;;;;;10.27;4.03;;;;;;;;;;5049957;28;20060;-69
2021/01/25 12:43:19;;;;;;;13.05;4.25;;;;;;;;;;5046337;28;20099;-69
2021/01/25 12:45:46;;;;;;;7.88;3.55;;;;;;;;;;5048090;28;20049;-69
2021/01/25 12:48:12;;;;;;;7.23;3.70;;;;;;;;;;5044654;28;20992;-69
2021/01/25 12:50:39;;;;;;;7.28;3.53;;;;;;;;;;5049082;28;20132;-69
2021/01/25 12:53:05;;;;;;;7.45;4.00;;;;;;;;;;5049149;28;20104;-69
2021/01/25 12:55:31;;;;;;;8.15;3.88;;;;;;;;;;5045139;28;20033;-69
2021/01/25 12:57:58;;;;;;;8.15;3.97;;;;;;;;;;5043348;28;20080;-69
2021/01/25 13:00:26;;;;;;;8.40;3.42;;;;;;;;;;5038956;28;20044;-68
2021/01/25 13:02:52;;;;;;;9.13;4.22;;;;;;;;;;5044827;28;20037;-68
2021/01/25 13:05:20;;;;;;;6.40;3.95;;;;;;;;;;5049424;28;20072;-68
2021/01/25 13:07:46;;;;;;;15.95;3.97;;;;;;;;;;5052250;28;20044;-68
2021/01/25 13:10:14;;;;;;;14.50;4.30;;;;;;;;;;5044861;28;20103;-68
2021/01/25 13:12:40;;;;;;;;;;;;;;;;;;5031029;28;20068;-68
2021/01/25 13:15:08;;;;;;;8.25;4.25;;;;;;;;;;5050909;28;20438;-68
2021/01/25 13:17:34;;;;;;;8.80;4.35;;;;;;;;;;5046049;28;20041;-68
2021/01/25 13:20:02;;;;;;;11.63;4.38;;;;;;;;;;5046692;28;20076;-68
2021/01/25 13:22:29;;;;;;;11.07;4.18;;;;;;;;;;5046693;28;20080;-68
2021/01/25 13:24:56;;;;;;;10.23;4.38;;;;;;;;;;5053443;28;20045;-68
2021/01/25 13:27:22;;;;;;;12.93;4.40;;;;;;;;;;5051066;28;20121;-68
2021/01/25 13:29:48;;;;;;;9.80;3.45;;;;;;;;;;5051040;28;20041;-68
2021/01/25 13:32:25;;;;;;;3.92;2.88;;;;;;;;;;5035734;28;20040;-68
2021/01/25 13:34:52;;;;;;;6.97;3.38;;;;;;;;;;5049318;28;20081;-69
2021/01/25 13:37:18;;;;;;;6.15;2.70;;;;;;;;;;5052413;28;20053;-68
2021/01/25 13:39:45;;;;;;;6.75;3.10;;;;;;;;;;5053345;28;20088;-68
2021/01/25 13:42:11;;;;;;;5.85;2.92;;;;;;;;;;5051574;28;20045;-68
2021/01/25 13:44:37;;;;;;;6.35;3.03;;;;;;;;;;5052335;28;20045;-68
2021/01/25 13:47:04;;;;;;;4.57;3.05;;;;;;;;;;5050177;28;20045;-68
2021/01/25 13:49:30;;;;;;;5.43;3.03;;;;;;;;;;5050907;28;20658;-68
2021/01/25 13:51:57;;;;;;;6.72;2.70;;;;;;;;;;5053028;28;20049;-68
2021/01/25 13:54:23;;;;;;;5.28;3.13;;;;;;;;;;5046300;28;20064;-68
2021/01/25 13:56:49;;;;;;;4.20;2.88;;;;;;;;;;5045989;28;20065;-68
2021/01/25 13:59:15;;;;;;;5.07;2.90;;;;;;;;;;5044041;28;20040;-68
2021/01/25 14:01:43;;;;;;;5.07;3.20;;;;;;;;;;5041320;28;20195;-68
2021/01/25 14:04:10;;;;;;;9.55;2.80;;;;;;;;;;5051608;28;20059;-68
2021/01/25 14:06:36;;;;;;;7.63;2.78;;;;;;;;;;5038971;28;20124;-68
2021/01/25 14:09:03;;;;;;;6.38;3.50;;;;;;;;;;5058780;28;20511;-68
2021/01/25 14:11:30;;;;;;;5.00;2.90;;;;;;;;;;5046037;28;20125;-68
2021/01/25 14:13:56;;;;;;;7.63;2.65;;;;;;;;;;5046526;28;20056;-68
2021/01/25 14:16:22;;;;;;;4.93;2.75;;;;;;;;;;5046924;28;20037;-68
2021/01/25 14:18:49;;;;;;;5.22;2.60;;;;;;;;;;5057539;28;20441;-68
2021/01/25 14:21:17;;;;;;;4.72;2.63;;;;;;;;;;5044011;28;20052;-68
2021/01/25 14:23:43;;;;;;;8.10;2.50;;;;;;;;;;5048441;28;20125;-68
2021/01/25 14:26:10;;;;;;;9.65;3.53;;;;;;;;;;5047470;28;20041;-68
2021/01/25 14:28:36;;;;;;;6.95;3.05;;;;;;;;;;5047048;28;20057;-68